createdAt,value
2022-09-14T00:01:44.448Z,100.00
2022-09-14T00:04:27.956Z,100.00
2022-09-14T00:06:55.834Z,100.00
2022-09-14T00:09:25.306Z,100.00
2022-09-14T00:11:53.726Z,100.00
2022-09-14T00:14:21.946Z,100.00
2022-09-14T00:16:52.226Z,100.00
2022-09-14T00:19:27.064Z,100.00
2022-09-14T00:21:58.769Z,100.00
2022-09-14T00:24:31.731Z,100.00
2022-09-14T00:26:59.691Z,100.00
2022-09-14T00:29:27.606Z,100.00
2022-09-14T00:31:57.183Z,100.00
2022-09-14T00:34:25.275Z,100.00
2022-09-14T00:36:53.416Z,100.00
2022-09-14T00:39:23.958Z,100.00
2022-09-14T00:41:53.237Z,100.00
2022-09-14T00:44:24.494Z,100.00
2022-09-14T00:46:57.096Z,100.00
2022-09-14T00:49:35.670Z,100.00
2022-09-14T00:52:13.279Z,100.00
2022-09-14T00:54:55.758Z,100.00
2022-09-14T00:57:27.130Z,100.00
2022-09-14T00:59:56.377Z,100.00
2022-09-14T01:02:27.697Z,100.00
2022-09-14T01:04:56.497Z,100.00
2022-09-14T01:07:36.518Z,100.00
2022-09-14T01:10:22.095Z,100.00
2022-09-14T01:12:50.132Z,100.00
2022-09-14T01:15:28.117Z,100.00
2022-09-14T01:18:48.895Z,100.00
2022-09-14T01:21:25.270Z,100.00
2022-09-14T01:24:12.397Z,100.00
2022-09-14T01:27:01.639Z,100.00
2022-09-14T01:29:48.435Z,100.00
2022-09-14T01:32:29.177Z,100.00
2022-09-14T01:35:05.836Z,100.00
2022-09-14T01:37:46.426Z,100.00
2022-09-14T01:40:28.336Z,100.00
2022-09-14T01:43:16.206Z,100.00
2022-09-14T01:45:52.262Z,100.00
2022-09-14T01:48:31.648Z,100.00
2022-09-14T01:51:03.358Z,100.00
2022-09-14T01:53:46.348Z,100.00
2022-09-14T01:56:26.883Z,100.00
2022-09-14T01:59:17.224Z,100.00
2022-09-14T02:01:55.995Z,100.00
2022-09-14T02:04:58.891Z,100.00
2022-09-14T02:07:26.999Z,100.00
2022-09-14T02:09:56.554Z,100.00
2022-09-14T02:12:24.464Z,100.00
2022-09-14T02:14:54.622Z,100.00
2022-09-14T02:17:23.263Z,100.00
2022-09-14T02:20:04.897Z,100.00
2022-09-14T02:22:32.849Z,100.00
2022-09-14T02:25:02.137Z,100.00
2022-09-14T02:27:30.203Z,100.00
2022-09-14T02:29:58.664Z,100.00
2022-09-14T02:32:39.801Z,100.00
2022-09-14T02:35:22.394Z,100.00
2022-09-14T02:38:11.565Z,100.00
2022-09-14T02:40:46.765Z,100.00
2022-09-14T02:43:45.676Z,100.00
2022-09-14T02:46:32.000Z,100.00
2022-09-14T02:49:32.284Z,100.00
2022-09-14T02:52:30.433Z,100.00
2022-09-14T02:55:14.757Z,100.00
2022-09-14T02:58:01.210Z,100.00
2022-09-14T03:00:31.673Z,100.00
2022-09-14T03:02:59.854Z,100.00
2022-09-14T03:05:27.862Z,100.00
2022-09-14T03:07:56.030Z,100.00
2022-09-14T03:10:24.039Z,100.00
2022-09-14T03:12:52.963Z,100.00
2022-09-14T03:15:21.315Z,100.00
2022-09-14T03:17:51.160Z,100.00
2022-09-14T03:20:22.111Z,100.00
2022-09-14T03:22:50.524Z,100.00
2022-09-14T03:25:25.487Z,100.00
2022-09-14T03:27:57.274Z,100.00
2022-09-14T03:30:26.095Z,100.00
2022-09-14T03:32:54.117Z,100.00
2022-09-14T03:35:22.155Z,100.00
2022-09-14T03:37:50.484Z,100.00
2022-09-14T03:40:21.833Z,100.00
2022-09-14T03:42:52.110Z,100.00
2022-09-14T03:45:22.078Z,100.00
2022-09-14T03:47:50.429Z,100.00
2022-09-14T03:50:19.348Z,100.00
2022-09-14T03:52:48.249Z,100.00
2022-09-14T03:55:16.408Z,100.00
2022-09-14T03:57:44.342Z,100.00
2022-09-14T04:00:12.642Z,100.00
2022-09-14T04:02:41.253Z,100.00
2022-09-14T04:05:10.424Z,100.00
2022-09-14T04:07:38.549Z,100.00
2022-09-14T04:10:07.885Z,100.00
2022-09-14T04:12:39.475Z,100.00
2022-09-14T04:15:08.263Z,100.00
2022-09-14T04:17:36.184Z,100.00
2022-09-14T04:20:05.903Z,100.00
2022-09-14T04:22:37.463Z,100.00
2022-09-14T04:25:05.918Z,100.00
2022-09-14T04:27:33.917Z,100.00
2022-09-14T04:30:02.209Z,100.00
2022-09-14T04:32:34.246Z,100.00
2022-09-14T04:35:02.906Z,100.00
2022-09-14T04:37:32.554Z,100.00
2022-09-14T04:40:00.679Z,100.00
2022-09-14T04:42:31.762Z,100.00
2022-09-14T04:44:59.752Z,100.00
2022-09-14T04:47:28.926Z,100.00
2022-09-14T04:49:56.820Z,100.00
2022-09-14T04:52:24.957Z,100.00
2022-09-14T04:54:52.945Z,100.00
2022-09-14T04:57:20.925Z,100.00
2022-09-14T04:59:49.014Z,100.00
2022-09-14T05:02:17.086Z,100.00
2022-09-14T05:04:45.433Z,100.00
2022-09-14T05:07:13.365Z,100.00
2022-09-14T05:09:41.765Z,100.00
2022-09-14T05:12:09.905Z,100.00
2022-09-14T05:14:38.114Z,100.00
2022-09-14T05:17:06.195Z,100.00
2022-09-14T05:19:34.231Z,100.00
2022-09-14T05:22:02.255Z,100.00
2022-09-14T05:24:30.580Z,100.00
2022-09-14T05:27:01.584Z,100.00
2022-09-14T05:29:32.120Z,100.00
2022-09-14T05:32:00.455Z,100.00
2022-09-14T05:34:28.529Z,100.00
2022-09-14T05:36:56.484Z,100.00
2022-09-14T05:39:25.315Z,100.00
2022-09-14T05:41:53.375Z,100.00
2022-09-14T05:44:21.687Z,100.00
2022-09-14T05:46:49.770Z,100.00
2022-09-14T05:49:18.135Z,99.92
2022-09-14T05:51:46.455Z,99.75
2022-09-14T05:54:15.288Z,99.33
2022-09-14T05:56:43.368Z,99.12
2022-09-14T05:59:11.845Z,100.00
2022-09-14T06:01:40.690Z,100.00
2022-09-14T06:04:11.565Z,100.00
2022-09-14T06:06:39.608Z,99.76
2022-09-14T06:09:07.703Z,98.39
2022-09-14T06:11:38.640Z,99.27
2022-09-14T06:14:07.429Z,99.50
2022-09-14T06:16:35.603Z,99.98
2022-09-14T06:19:04.674Z,99.99
2022-09-14T06:21:35.112Z,100.00
2022-09-14T06:24:03.924Z,99.94
2022-09-14T06:26:32.427Z,99.91
2022-09-14T06:29:00.437Z,100.00
2022-09-14T06:31:28.721Z,100.00
2022-09-14T06:33:56.718Z,100.00
2022-09-14T06:36:27.685Z,100.00
2022-09-14T06:38:57.130Z,100.00
2022-09-14T06:41:29.830Z,100.00
2022-09-14T06:43:59.871Z,100.00
2022-09-14T06:46:31.395Z,100.00
2022-09-14T06:49:02.921Z,100.00
2022-09-14T06:51:37.351Z,100.00
2022-09-14T06:54:06.905Z,100.00
2022-09-14T06:56:37.196Z,100.00
2022-09-14T06:59:07.628Z,100.00
2022-09-14T07:01:36.184Z,100.00
2022-09-14T07:04:05.995Z,100.00
2022-09-14T07:06:40.474Z,100.00
2022-09-14T07:09:09.136Z,100.00
2022-09-14T07:11:38.539Z,100.00
2022-09-14T07:14:07.759Z,100.00
2022-09-14T07:16:37.204Z,100.00
2022-09-14T07:19:11.457Z,99.91
2022-09-14T07:21:40.590Z,99.82
2022-09-14T07:24:08.840Z,99.74
2022-09-14T07:26:42.796Z,98.54
2022-09-14T07:29:17.227Z,97.99
2022-09-14T07:31:48.421Z,98.42
2022-09-14T07:34:17.401Z,97.41
2022-09-14T07:36:46.488Z,96.73
2022-09-14T07:39:17.617Z,96.30
2022-09-14T07:41:45.995Z,94.07
2022-09-14T07:44:16.908Z,90.86
2022-09-14T07:46:47.160Z,89.55
2022-09-14T07:49:16.577Z,86.05
2022-09-14T07:51:45.369Z,84.19
2022-09-14T07:54:15.014Z,84.06
2022-09-14T07:56:43.962Z,83.61
2022-09-14T08:02:02.983Z,80.74
2022-09-14T08:04:31.029Z,79.06
2022-09-14T08:06:59.249Z,77.28
2022-09-14T08:09:27.906Z,76.36
2022-09-14T08:11:56.460Z,73.44
2022-09-14T08:14:25.438Z,74.35
2022-09-14T08:16:53.619Z,74.34
2022-09-14T08:19:22.075Z,75.20
2022-09-14T08:21:50.158Z,72.37
2022-09-14T08:24:21.238Z,71.22
2022-09-14T08:26:49.731Z,71.54
2022-09-14T08:29:19.538Z,68.60
2022-09-14T08:31:52.091Z,66.94
2022-09-14T08:34:20.588Z,63.97
2022-09-14T08:36:48.934Z,62.04
2022-09-14T08:39:18.462Z,63.54
2022-09-14T08:41:53.357Z,63.05
2022-09-14T08:44:30.907Z,60.30
2022-09-14T08:47:21.863Z,58.95
2022-09-14T08:49:58.873Z,59.73
2022-09-14T08:52:49.441Z,62.58
2022-09-14T08:55:21.524Z,60.99
2022-09-14T08:58:02.706Z,62.64
2022-09-14T09:00:57.610Z,61.64
2022-09-14T09:03:47.243Z,59.78
2022-09-14T09:06:57.458Z,60.08
2022-09-14T09:09:52.495Z,60.35
2022-09-14T09:12:27.997Z,58.58
2022-09-14T09:15:00.845Z,58.87
2022-09-14T09:17:33.968Z,55.57
2022-09-14T09:20:18.094Z,51.23
2022-09-14T09:22:54.849Z,50.82
2022-09-14T09:25:27.314Z,50.49
2022-09-14T09:28:02.837Z,52.82
2022-09-14T09:30:31.214Z,54.85
2022-09-14T09:32:59.489Z,56.29
2022-09-14T09:35:27.730Z,58.19
2022-09-14T09:37:55.905Z,58.68
2022-09-14T09:40:45.186Z,59.75
2022-09-14T09:43:28.954Z,59.82
2022-09-14T09:46:08.775Z,59.28
2022-09-14T09:48:44.049Z,58.29
2022-09-14T09:51:15.030Z,55.13
2022-09-14T09:53:50.027Z,55.27
2022-09-14T09:56:28.115Z,56.10
2022-09-14T09:58:56.098Z,59.00
2022-09-14T10:01:35.598Z,59.10
2022-09-14T10:04:34.135Z,60.55
2022-09-14T10:07:04.241Z,55.95
2022-09-14T10:09:32.489Z,52.45
2022-09-14T10:12:03.123Z,50.96
2022-09-14T10:14:37.983Z,50.17
2022-09-14T10:17:17.489Z,49.74
2022-09-14T10:19:54.179Z,48.33
2022-09-14T10:22:32.749Z,48.61
2022-09-14T10:25:13.582Z,48.08
2022-09-14T10:28:04.374Z,47.35
2022-09-14T10:30:39.735Z,44.57
2022-09-14T10:33:13.332Z,41.79
2022-09-14T10:35:50.436Z,42.85
2022-09-14T10:38:31.263Z,42.83
2022-09-14T10:41:25.744Z,43.19
2022-09-14T10:44:26.544Z,42.78
2022-09-14T10:47:10.139Z,43.68
2022-09-14T10:50:15.664Z,46.03
2022-09-14T10:52:49.369Z,45.92
2022-09-14T10:55:43.933Z,45.33
2022-09-14T10:58:27.982Z,45.69
2022-09-14T11:01:26.671Z,47.23
2022-09-14T11:03:54.811Z,48.91
2022-09-14T11:06:28.739Z,49.80
2022-09-14T11:09:11.538Z,48.58
2022-09-14T11:11:52.769Z,46.92
2022-09-14T11:14:31.604Z,46.21
2022-09-14T11:17:22.653Z,45.93
2022-09-14T11:20:26.845Z,47.96
2022-09-14T11:23:19.641Z,49.40
2022-09-14T11:26:11.774Z,46.81
2022-09-14T11:28:45.212Z,44.84
2022-09-14T11:31:19.498Z,41.99
2022-09-14T11:34:13.707Z,41.94
2022-09-14T11:36:46.253Z,40.83
2022-09-14T11:39:26.920Z,41.18
2022-09-14T11:42:09.712Z,41.36
2022-09-14T11:44:40.899Z,44.15
2022-09-14T11:47:14.880Z,45.42
2022-09-14T11:49:52.524Z,46.59
2022-09-14T11:52:23.619Z,45.88
2022-09-14T11:54:52.693Z,43.16
2022-09-14T11:57:26.124Z,42.31
2022-09-14T11:59:57.667Z,43.66
2022-09-14T12:02:25.926Z,42.49
2022-09-14T12:05:05.790Z,40.45
2022-09-14T12:07:42.433Z,40.19
2022-09-14T12:10:16.479Z,37.66
2022-09-14T12:12:47.700Z,36.92
2022-09-14T12:15:24.831Z,36.60
2022-09-14T12:18:07.867Z,39.15
2022-09-14T12:20:39.351Z,41.08
2022-09-14T12:23:10.025Z,40.09
2022-09-14T12:25:40.918Z,39.10
2022-09-14T12:28:29.822Z,39.90
2022-09-14T12:30:58.014Z,39.97
2022-09-14T12:33:34.725Z,38.23
2022-09-14T12:36:11.187Z,38.60
2022-09-14T12:38:42.685Z,37.89
2022-09-14T12:41:10.833Z,37.19
2022-09-14T12:43:41.794Z,36.97
2022-09-14T12:46:11.270Z,37.14
2022-09-14T12:48:48.630Z,37.24
2022-09-14T12:51:23.767Z,37.71
2022-09-14T12:54:09.731Z,37.37
2022-09-14T12:56:41.211Z,35.18
2022-09-14T12:59:45.056Z,33.21
2022-09-14T13:02:37.754Z,34.54
2022-09-14T13:05:12.966Z,36.69
2022-09-14T13:07:42.270Z,35.77
2022-09-14T13:10:29.335Z,35.85
2022-09-14T13:12:58.108Z,35.23
2022-09-14T13:15:28.888Z,34.88
2022-09-14T13:18:06.211Z,34.08
2022-09-14T13:20:35.929Z,33.67
2022-09-14T13:23:20.102Z,34.10
2022-09-14T13:25:50.139Z,35.70
2022-09-14T13:28:20.501Z,35.42
2022-09-14T13:30:56.897Z,36.86
2022-09-14T13:33:25.764Z,37.27
2022-09-14T13:35:57.291Z,37.71
2022-09-14T13:38:30.093Z,37.94
2022-09-14T13:41:16.317Z,39.03
2022-09-14T13:44:04.878Z,38.25
2022-09-14T13:46:36.205Z,37.03
2022-09-14T13:49:07.404Z,37.67
2022-09-14T13:51:35.617Z,37.68
2022-09-14T13:54:23.929Z,38.44
2022-09-14T13:57:18.507Z,39.95
2022-09-14T14:00:14.403Z,42.23
2022-09-14T14:02:53.183Z,42.69
2022-09-14T14:05:30.658Z,44.19
2022-09-14T14:08:00.966Z,44.81
2022-09-14T14:10:37.828Z,45.82
2022-09-14T14:13:06.102Z,46.45
2022-09-14T14:15:38.669Z,47.38
2022-09-14T14:18:42.102Z,47.25
2022-09-14T14:21:32.919Z,48.30
2022-09-14T14:24:28.575Z,48.91
2022-09-14T14:26:58.424Z,48.72
2022-09-14T14:29:26.958Z,47.86
2022-09-14T14:31:56.651Z,47.18
2022-09-14T14:34:29.080Z,46.19
2022-09-14T14:36:57.773Z,44.89
2022-09-14T14:39:26.156Z,43.19
2022-09-14T14:41:54.397Z,41.19
2022-09-14T14:44:30.104Z,39.63
2022-09-14T14:46:58.290Z,38.13
2022-09-14T14:49:26.746Z,36.15
2022-09-14T14:51:54.792Z,35.31
2022-09-14T14:54:22.854Z,35.34
2022-09-14T14:56:51.689Z,37.43
2022-09-14T14:59:19.873Z,40.60
2022-09-14T15:01:49.333Z,42.45
2022-09-14T15:04:17.411Z,44.42
2022-09-14T15:06:47.488Z,45.64
2022-09-14T15:09:19.468Z,47.12
2022-09-14T15:11:47.683Z,47.39
2022-09-14T15:14:18.577Z,47.02
2022-09-14T15:16:47.769Z,46.62
2022-09-14T15:19:16.775Z,46.34
2022-09-14T15:21:44.834Z,47.10
2022-09-14T15:24:12.904Z,47.45
2022-09-14T15:26:41.284Z,47.96
2022-09-14T15:29:13.743Z,48.29
2022-09-14T15:31:41.798Z,48.93
2022-09-14T15:34:10.127Z,49.86
2022-09-14T15:36:52.765Z,51.06
2022-09-14T15:39:24.606Z,51.27
2022-09-14T15:41:53.814Z,52.13
2022-09-14T15:44:22.817Z,52.68
2022-09-14T15:46:51.307Z,53.11
2022-09-14T15:49:22.095Z,53.80
2022-09-14T15:51:52.572Z,54.18
2022-09-14T15:54:25.330Z,54.55
2022-09-14T15:56:55.966Z,54.65
2022-09-14T15:59:24.047Z,55.47
2022-09-14T16:01:52.671Z,56.23
2022-09-14T16:04:21.384Z,55.82
2022-09-14T16:06:50.145Z,56.64
2022-09-14T16:09:21.855Z,56.57
2022-09-14T16:11:50.190Z,57.44
2022-09-14T16:14:18.178Z,57.03
2022-09-14T16:16:46.375Z,57.46
2022-09-14T16:19:15.538Z,58.41
2022-09-14T16:21:43.696Z,58.15
2022-09-14T16:24:18.294Z,58.49
2022-09-14T16:26:47.424Z,59.26
2022-09-14T16:29:17.719Z,58.94
2022-09-14T16:31:48.197Z,59.27
2022-09-14T16:34:22.113Z,59.47
2022-09-14T16:36:51.354Z,60.08
2022-09-14T16:39:29.584Z,60.11
2022-09-14T16:41:59.392Z,60.58
2022-09-14T16:44:28.759Z,60.81
2022-09-14T16:46:58.607Z,61.57
2022-09-14T16:49:28.417Z,61.65
2022-09-14T16:52:01.294Z,61.88
2022-09-14T16:54:30.145Z,62.24
2022-09-14T16:56:59.775Z,62.32
2022-09-14T16:59:27.956Z,62.61
2022-09-14T17:01:56.227Z,63.42
2022-09-14T17:04:25.821Z,64.36
2022-09-14T17:06:55.365Z,65.67
2022-09-14T17:09:28.070Z,67.18
2022-09-14T17:11:57.911Z,68.21
2022-09-14T17:14:28.993Z,68.95
2022-09-14T17:16:59.263Z,69.93
2022-09-14T17:19:28.088Z,70.69
2022-09-14T17:21:57.906Z,71.47
2022-09-14T17:24:26.245Z,72.27
2022-09-14T17:26:54.520Z,73.09
2022-09-14T17:29:22.657Z,73.70
2022-09-14T17:31:50.939Z,73.93
2022-09-14T17:34:19.203Z,74.47
2022-09-14T17:36:47.776Z,75.12
2022-09-14T17:39:15.931Z,75.65
2022-09-14T17:41:44.485Z,75.86
2022-09-14T17:44:14.882Z,75.91
2022-09-14T17:46:52.020Z,76.13
2022-09-14T17:49:23.206Z,76.46
2022-09-14T17:51:52.091Z,76.73
2022-09-14T17:54:20.905Z,76.97
2022-09-14T17:56:49.743Z,77.19
2022-09-14T17:59:21.046Z,77.52
2022-09-14T18:01:50.349Z,78.03
2022-09-14T18:04:19.403Z,78.57
2022-09-14T18:06:50.250Z,78.55
2022-09-14T18:09:22.469Z,78.92
2022-09-14T18:11:50.992Z,79.31
2022-09-14T18:14:19.225Z,79.60
2022-09-14T18:16:47.534Z,79.82
2022-09-14T18:19:16.622Z,80.13
2022-09-14T18:21:48.980Z,80.29
2022-09-14T18:24:20.459Z,80.57
2022-09-14T18:26:49.000Z,81.23
2022-09-14T18:29:21.628Z,81.36
2022-09-14T18:31:53.735Z,81.73
2022-09-14T18:34:24.034Z,82.16
2022-09-14T18:36:52.372Z,82.17
2022-09-14T18:39:21.487Z,82.31
2022-09-14T18:41:56.534Z,82.71
2022-09-14T18:44:24.604Z,83.53
2022-09-14T18:46:52.766Z,83.67
2022-09-14T18:49:21.325Z,84.42
2022-09-14T18:51:49.516Z,85.10
2022-09-14T18:54:18.228Z,85.20
2022-09-14T18:56:46.439Z,85.97
2022-09-14T18:59:15.517Z,85.90
2022-09-14T19:01:44.375Z,85.86
2022-09-14T19:04:13.319Z,86.49
2022-09-14T19:06:42.012Z,86.79
2022-09-14T19:09:11.380Z,87.12
2022-09-14T19:11:39.729Z,87.69
2022-09-14T19:14:11.703Z,88.00
2022-09-14T19:16:41.455Z,88.30
2022-09-14T19:19:13.456Z,88.61
2022-09-14T19:21:43.728Z,89.17
2022-09-14T19:24:15.496Z,89.54
2022-09-14T19:26:47.177Z,89.66
2022-09-14T19:29:19.640Z,89.77
2022-09-14T19:31:51.835Z,89.82
2022-09-14T19:34:23.711Z,89.80
2022-09-14T19:36:53.410Z,89.91
2022-09-14T19:39:23.368Z,90.01
2022-09-14T19:41:52.798Z,90.30
2022-09-14T19:44:22.715Z,90.88
2022-09-14T19:46:52.006Z,91.20
2022-09-14T19:49:22.724Z,91.14
2022-09-14T19:51:50.984Z,91.25
2022-09-14T19:54:19.489Z,91.13
2022-09-14T19:56:47.862Z,91.48
2022-09-14T19:59:17.044Z,91.68
2022-09-14T20:01:46.191Z,91.81
2022-09-14T20:04:15.931Z,91.88
2022-09-14T20:06:46.287Z,92.45
2022-09-14T20:09:22.620Z,93.13
2022-09-14T20:11:52.762Z,93.45
2022-09-14T20:14:24.744Z,94.02
2022-09-14T20:16:57.607Z,93.96
2022-09-14T20:19:28.479Z,94.15
2022-09-14T20:21:56.740Z,93.94
2022-09-14T20:24:28.191Z,93.81
2022-09-14T20:26:59.931Z,93.78
2022-09-14T20:29:31.607Z,93.95
2022-09-14T20:32:04.964Z,94.16
2022-09-14T20:34:34.559Z,94.21
2022-09-14T20:37:02.694Z,94.66
2022-09-14T20:39:30.859Z,95.09
2022-09-14T20:41:58.969Z,95.02
2022-09-14T20:44:27.210Z,94.90
2022-09-14T20:46:55.470Z,95.29
2022-09-14T20:49:24.052Z,95.38
2022-09-14T20:51:52.967Z,95.40
2022-09-14T20:54:22.562Z,95.37
2022-09-14T20:56:50.762Z,95.37
2022-09-14T20:59:19.650Z,95.75
2022-09-14T21:01:49.869Z,95.45
2022-09-14T21:04:22.271Z,95.34
2022-09-14T21:06:53.450Z,95.45
2022-09-14T21:09:24.822Z,95.38
2022-09-14T21:11:53.525Z,95.56
2022-09-14T21:14:22.951Z,95.52
2022-09-14T21:16:55.422Z,95.44
2022-09-14T21:19:27.561Z,95.21
2022-09-14T21:21:56.929Z,95.31
2022-09-14T21:24:25.575Z,94.98
2022-09-14T21:26:53.635Z,94.43
2022-09-14T21:29:24.121Z,93.93
2022-09-14T21:31:53.075Z,93.71
2022-09-14T21:34:21.938Z,93.28
2022-09-14T21:36:51.762Z,93.16
2022-09-14T21:39:25.585Z,92.93
2022-09-14T21:41:58.762Z,92.81
2022-09-14T21:44:32.812Z,92.95
2022-09-14T21:47:02.362Z,93.26
2022-09-14T21:49:31.012Z,93.61
2022-09-14T21:51:59.112Z,93.82
2022-09-14T21:54:27.250Z,93.87
2022-09-14T21:56:55.677Z,94.19
2022-09-14T21:59:24.279Z,94.41
2022-09-14T22:01:52.541Z,94.72
2022-09-14T22:04:24.171Z,94.56
2022-09-14T22:06:53.464Z,94.63
2022-09-14T22:09:25.942Z,94.78
2022-09-14T22:11:55.019Z,94.88
2022-09-14T22:14:27.588Z,95.07
2022-09-14T22:16:56.409Z,95.49
2022-09-14T22:30:54.547Z,96.25
2022-09-14T22:33:23.464Z,96.18
2022-09-14T22:35:58.554Z,96.36
2022-09-14T22:38:27.930Z,96.45
2022-09-14T22:41:17.172Z,96.69
2022-09-14T22:44:04.503Z,96.72
2022-09-14T22:46:32.409Z,97.04
2022-09-14T22:48:59.049Z,97.12
2022-09-14T22:51:28.251Z,97.15
2022-09-14T22:53:56.801Z,97.27
2022-09-14T22:56:27.230Z,97.28
2022-09-14T22:58:54.476Z,96.90
2022-09-14T23:01:25.859Z,96.84
2022-09-14T23:03:58.017Z,96.58
2022-09-14T23:06:31.478Z,96.55
2022-09-14T23:09:00.466Z,96.49
2022-09-14T23:11:27.510Z,96.48
2022-09-14T23:13:54.094Z,96.51
2022-09-14T23:16:25.513Z,96.82
2022-09-14T23:18:55.090Z,96.57
2022-09-14T23:21:22.821Z,96.83
2022-09-14T23:24:06.801Z,96.79
2022-09-14T23:26:33.735Z,96.82
2022-09-14T23:29:04.768Z,96.88
2022-09-14T23:31:32.118Z,96.95
2022-09-14T23:34:01.542Z,97.03
2022-09-14T23:36:28.897Z,97.06
2022-09-14T23:38:56.109Z,97.17
2022-09-14T23:41:24.496Z,97.25
2022-09-14T23:43:52.314Z,97.29
2022-09-14T23:46:20.095Z,97.58
2022-09-14T23:48:47.524Z,97.78
2022-09-14T23:51:15.280Z,98.23
2022-09-14T23:53:43.329Z,98.19
2022-09-14T23:56:11.337Z,98.12
2022-09-14T23:58:40.925Z,98.45
